La Grange, Illinois
Current Conditions -  °F | °C
As of 9:53 AM on Wednesday 28 Jan 2015 (Local Time) from KMDW Reporting Station
Broken Clouds Broken Clouds  
Wind Chill: 21°   Ceiling: 25000
Heat Index: 29°   Visibility: 10mi
Dew Point: 16°   Wind: 8mph
Humidity: 58%   Direction: 170°S
Pressure: 30.27"   Gusts: NA
Location:  41.81°N, 87.87°W
Report Text: KMDW 281553Z 17007KT 10SM BKN250 M02/M09 A3027 RMK AO2 SLP264 T10171089
Loading
Personal Weather Stations






























Interactive Weather Map New forecast layout! Learn more

10-Day Weather Forecast

Advertisements
Track Severe Weather on mobile